createdAt,value
2019-04-28T14:10:18.248Z,5.20
2019-04-28T14:12:52.727Z,3.87
2019-04-28T14:15:27.481Z,5.05
2019-04-28T14:18:08.821Z,5.10
2019-04-28T14:20:45.157Z,3.47
2019-04-28T14:23:17.586Z,2.85
2019-04-28T14:25:57.645Z,2.87
2019-04-28T14:28:29.533Z,2.87
2019-04-28T14:33:46.732Z,2.70
2019-04-28T14:36:19.199Z,2.25
2019-04-28T14:38:54.531Z,2.22
2019-04-28T14:41:45.138Z,1.42
2019-04-28T14:44:22.947Z,2.95
2019-04-28T14:47:04.451Z,3.55
2019-04-28T14:49:42.176Z,2.75
2019-04-28T14:55:12.198Z,3.08
2019-04-28T14:57:43.369Z,3.72
2019-04-28T15:00:17.112Z,2.62
2019-04-28T15:02:52.119Z,2.72
2019-04-28T15:05:46.375Z,3.83
2019-04-28T15:08:23.174Z,4.35
2019-04-28T15:11:02.301Z,2.90
2019-04-28T15:13:35.058Z,2.47
2019-04-28T15:16:09.330Z,4.15
2019-04-28T15:18:47.562Z,3.02
2019-04-28T15:21:23.391Z,1.72
2019-04-28T15:24:00.014Z,2.27
2019-04-28T15:26:47.793Z,2.98
2019-04-28T15:29:24.635Z,5.72
2019-04-28T15:31:58.875Z,3.58
2019-04-28T15:34:32.542Z,3.12
2019-04-28T15:37:10.056Z,3.33
2019-04-28T15:42:38.991Z,3.00
2019-04-28T15:45:13.854Z,5.10
2019-04-28T15:47:49.246Z,3.02
2019-04-28T15:50:25.624Z,2.12
2019-04-28T15:53:03.178Z,2.75
2019-04-28T15:55:40.694Z,2.92
2019-04-28T15:58:28.622Z,2.62
2019-04-28T16:01:01.050Z,2.02
2019-04-28T16:03:32.410Z,3.45
2019-04-28T16:06:06.834Z,8.95
2019-04-28T16:08:36.244Z,3.17
2019-04-28T16:11:07.447Z,5.12
2019-04-28T16:13:37.661Z,3.12
2019-04-28T16:16:07.300Z,3.90
2019-04-28T16:18:42.023Z,3.80
2019-04-28T16:21:11.543Z,2.37
2019-04-28T16:23:42.660Z,4.33
2019-04-28T16:26:16.626Z,3.45
2019-04-28T16:28:48.600Z,3.33
2019-04-28T16:31:20.108Z,3.02
2019-04-28T16:33:51.399Z,2.12
2019-04-28T16:36:24.707Z,3.52
2019-04-28T16:38:56.750Z,3.02
2019-04-28T16:41:28.444Z,3.77
2019-04-28T16:44:01.666Z,4.17
2019-04-28T16:46:34.651Z,3.05
2019-04-28T16:49:04.500Z,4.25
2019-04-28T16:51:38.359Z,4.55
2019-04-28T16:54:09.607Z,3.12
2019-04-28T16:56:47.212Z,5.87
2019-04-28T16:59:24.165Z,3.55
2019-04-28T17:01:57.923Z,4.15
2019-04-28T17:04:29.335Z,2.70
2019-04-28T17:06:58.767Z,3.22
2019-04-28T17:09:28.259Z,3.58
2019-04-28T17:11:58.950Z,3.62
2019-04-28T17:14:28.293Z,2.30
2019-04-28T17:17:00.771Z,4.85
2019-04-28T17:19:31.806Z,4.60
2019-04-28T17:22:01.356Z,3.03
2019-04-28T17:24:32.755Z,5.20
2019-04-28T17:27:02.094Z,4.40
2019-04-28T17:29:31.477Z,4.17
2019-04-28T17:32:00.874Z,4.35
2019-04-28T17:34:29.850Z,3.45
2019-04-28T17:36:58.873Z,4.75
2019-04-28T17:39:29.544Z,2.92
2019-04-28T17:42:00.227Z,3.50
2019-04-28T17:44:39.460Z,2.77
2019-04-28T17:47:09.496Z,11.48
2019-04-28T17:49:38.804Z,3.37
2019-04-28T17:52:09.424Z,4.97
2019-04-28T17:54:38.630Z,4.53
2019-04-28T17:57:07.795Z,6.25
2019-04-28T17:59:37.099Z,3.83
2019-04-28T18:02:11.234Z,5.03
2019-04-28T18:04:57.555Z,4.53
2019-04-28T18:07:27.987Z,3.52
2019-04-28T18:09:56.887Z,6.22
2019-04-28T18:12:25.697Z,27.02
2019-04-28T18:14:57.833Z,33.15
2019-04-28T18:17:32.297Z,25.70
2019-04-28T18:20:01.229Z,19.52
2019-04-28T18:22:29.749Z,17.45
2019-04-28T18:24:58.370Z,15.90
2019-04-28T18:27:27.646Z,10.08
2019-04-28T18:29:56.204Z,3.72
2019-04-28T18:32:28.708Z,7.05
2019-04-28T18:35:14.063Z,3.95
2019-04-28T18:38:01.309Z,4.28
2019-04-28T18:40:47.216Z,6.47
2019-04-28T18:43:20.346Z,5.25
2019-04-28T18:45:48.798Z,3.60
2019-04-28T18:48:17.210Z,6.05
2019-04-28T18:50:46.051Z,4.62
2019-04-28T18:53:14.471Z,5.17
2019-04-28T18:55:43.236Z,4.47
2019-04-28T18:58:11.746Z,5.08
2019-04-28T19:00:41.838Z,4.70
2019-04-28T19:03:10.269Z,4.58
2019-04-28T19:05:40.379Z,7.53
2019-04-28T19:08:13.564Z,4.08
2019-04-28T19:10:59.353Z,3.83
2019-04-28T19:13:29.455Z,4.05
2019-04-28T19:16:17.901Z,5.50
2019-04-28T19:18:51.118Z,4.70
2019-04-28T19:21:19.579Z,3.58
2019-04-28T19:23:49.466Z,4.08
2019-04-28T19:26:18.796Z,4.28
2019-04-28T19:28:47.825Z,4.10
2019-04-28T19:31:16.277Z,3.83
2019-04-28T19:33:44.798Z,3.02
2019-04-28T19:36:13.368Z,4.12
2019-04-28T19:38:41.857Z,2.90
2019-04-28T19:41:10.275Z,4.53
2019-04-28T19:43:38.784Z,3.85
2019-04-28T19:46:09.133Z,4.35
2019-04-28T19:48:37.569Z,6.03
2019-04-28T19:51:05.997Z,11.15
2019-04-28T19:53:34.536Z,3.00
2019-04-28T19:56:04.613Z,9.53
2019-04-28T19:58:43.377Z,6.87
2019-04-28T20:01:15.834Z,6.53
2019-04-28T20:03:44.672Z,5.28
2019-04-28T20:06:13.403Z,11.53
2019-04-28T20:08:41.828Z,9.45
2019-04-28T20:11:10.519Z,5.58
2019-04-28T20:13:39.092Z,4.05
2019-04-28T20:16:07.706Z,4.60
2019-04-28T20:18:36.139Z,4.60
2019-04-28T20:21:04.614Z,4.80
2019-04-28T20:23:33.058Z,9.15
2019-04-28T20:26:01.565Z,4.08
2019-04-28T20:28:30.053Z,6.17
2019-04-28T20:30:58.539Z,6.47
2019-04-28T20:33:27.247Z,5.50
2019-04-28T20:35:57.336Z,5.42
2019-04-28T20:38:30.106Z,7.42
2019-04-28T20:41:08.916Z,6.62
2019-04-28T20:43:37.391Z,5.65
2019-04-28T20:46:05.869Z,5.47
2019-04-28T20:48:34.444Z,5.92
2019-04-28T20:51:02.876Z,5.83
2019-04-28T20:53:31.431Z,5.95
2019-04-28T20:56:00.099Z,4.28
2019-04-28T20:58:28.552Z,4.12
2019-04-28T21:00:57.055Z,6.25
2019-04-28T21:03:25.707Z,5.45
2019-04-28T21:05:54.128Z,5.37
2019-04-28T21:08:22.590Z,6.87
2019-04-28T21:10:51.014Z,4.65
2019-04-28T21:13:19.591Z,6.87
2019-04-28T21:15:48.046Z,4.83
2019-04-28T21:18:16.987Z,6.75
2019-04-28T21:20:45.642Z,4.55
2019-04-28T21:23:14.042Z,5.30
2019-04-28T21:25:42.502Z,5.45
2019-04-28T21:28:10.950Z,5.78
2019-04-28T21:30:39.433Z,6.97
2019-04-28T21:33:08.120Z,7.12
2019-04-28T21:35:36.546Z,6.35
2019-04-28T21:38:05.081Z,6.55
2019-04-28T21:40:33.929Z,4.37
2019-04-28T21:43:06.939Z,3.47
2019-04-28T21:45:53.171Z,5.90
2019-04-28T21:48:41.586Z,5.33
2019-04-28T21:51:12.002Z,5.45
2019-04-28T21:53:40.237Z,7.20
2019-04-28T21:56:08.825Z,6.30
2019-04-28T21:58:37.273Z,7.97
2019-04-28T22:01:07.199Z,5.20
2019-04-28T22:03:35.585Z,4.75
2019-04-28T22:06:04.779Z,6.00
2019-04-28T22:08:33.208Z,7.00
2019-04-28T22:11:01.675Z,8.48
2019-04-28T22:13:30.518Z,7.90
2019-04-28T22:15:58.946Z,5.95
2019-04-28T22:18:27.380Z,6.83
2019-04-28T22:20:55.939Z,5.58
2019-04-28T22:23:44.335Z,5.70
2019-04-28T22:26:14.426Z,7.47
2019-04-28T22:28:42.861Z,7.83
2019-04-28T22:31:11.336Z,8.53
2019-04-28T22:33:39.823Z,7.17
2019-04-28T22:36:08.252Z,7.53
2019-04-28T22:38:36.848Z,9.93
2019-04-28T22:41:05.389Z,7.85
2019-04-28T22:43:33.826Z,7.87
2019-04-28T22:46:02.248Z,8.88
2019-04-28T22:48:30.685Z,5.97
2019-04-28T22:50:59.578Z,7.42
2019-04-28T22:53:29.701Z,9.35
2019-04-28T22:56:02.282Z,8.98
2019-04-28T22:58:32.346Z,6.58
2019-04-28T23:01:02.409Z,7.97
2019-04-28T23:03:35.613Z,10.13
2019-04-28T23:06:04.697Z,9.78
2019-04-28T23:08:33.135Z,7.47
2019-04-28T23:11:01.625Z,7.05
2019-04-28T23:13:30.051Z,9.40
2019-04-28T23:15:58.566Z,9.93
2019-04-28T23:18:27.657Z,6.70
2019-04-28T23:21:06.375Z,7.85
2019-04-28T23:23:34.842Z,7.80
2019-04-28T23:26:03.296Z,11.40
2019-04-28T23:28:31.716Z,11.22
2019-04-28T23:31:00.207Z,13.30
2019-04-28T23:33:28.621Z,8.50
2019-04-28T23:35:57.141Z,13.58
2019-04-28T23:38:25.610Z,13.45
2019-04-28T23:40:55.676Z,10.13
2019-04-28T23:43:24.112Z,14.00
2019-04-28T23:45:53.348Z,12.73
2019-04-28T23:48:21.776Z,10.55
2019-04-28T23:50:51.844Z,12.10
2019-04-28T23:53:22.275Z,14.00
2019-04-28T23:55:50.721Z,11.78
2019-04-28T23:58:19.164Z,11.15
